North Hudson, Wisconsin
Current Conditions -  °F | °C
As of 12:31 PM on Thursday 30 Oct 2014 (Local Time) from K21D Reporting Station
Overcast Overcast  
Wind Chill: 46°   Ceiling: 5000
Heat Index: 46°   Visibility: 10mi
Dew Point: 37°   Wind: 3mph
Humidity: 71%   Direction: 350°N
Pressure: 30.1"   Gusts: NA
Location:  44.9743°N, 92.6899°W
Report Text: K21D 301731Z AUTO 35003KT 10SM OVC050 08/03 A3010 RMK AO2
Loading
Personal Weather Stations






























Interactive Weather Map
Tropical Storm Tracking
New forecast layout! Learn more

10-Day Weather Forecast

Advertisements
Track Severe Weather on mobile